sensor_id;sensor_type;location;lat;lon;timestamp;pressure;altitude;pressure_sealevel;temperature;humidity
61769;BME280;47669;48.712;9.016;2023-07-22T00:00:12;96585.03;;;11.12;86.44
61769;BME280;47669;48.712;9.016;2023-07-22T00:02:40;96582.03;;;11.33;86.32
61769;BME280;47669;48.712;9.016;2023-07-22T00:05:06;96589.38;;;11.31;85.00
61769;BME280;47669;48.712;9.016;2023-07-22T00:07:31;96579.88;;;11.49;84.80
61769;BME280;47669;48.712;9.016;2023-07-22T00:09:56;96593.31;;;11.22;86.74
61769;BME280;47669;48.712;9.016;2023-07-22T00:12:22;96584.69;;;11.02;86.98
61769;BME280;47669;48.712;9.016;2023-07-22T00:14:51;96584.81;;;11.45;85.89
61769;BME280;47669;48.712;9.016;2023-07-22T00:17:16;96590.00;;;10.95;86.50
61769;BME280;47669;48.712;9.016;2023-07-22T00:19:41;96574.53;;;10.98;86.36
61769;BME280;47669;48.712;9.016;2023-07-22T00:22:07;96592.47;;;10.90;86.36
61769;BME280;47669;48.712;9.016;2023-07-22T00:24:32;96588.63;;;10.86;86.78
61769;BME280;47669;48.712;9.016;2023-07-22T00:26:57;96591.00;;;10.94;86.17
61769;BME280;47669;48.712;9.016;2023-07-22T00:29:23;96594.06;;;10.97;86.78
61769;BME280;47669;48.712;9.016;2023-07-22T00:31:48;96592.06;;;10.93;86.73
61769;BME280;47669;48.712;9.016;2023-07-22T00:34:14;96588.22;;;10.89;86.51
61769;BME280;47669;48.712;9.016;2023-07-22T00:36:39;96584.25;;;11.05;85.10
61769;BME280;47669;48.712;9.016;2023-07-22T00:39:05;96590.88;;;10.82;85.69
61769;BME280;47669;48.712;9.016;2023-07-22T00:41:31;96592.75;;;10.68;88.04
61769;BME280;47669;48.712;9.016;2023-07-22T00:43:56;96594.59;;;10.68;87.57
61769;BME280;47669;48.712;9.016;2023-07-22T00:46:22;96588.69;;;10.72;86.69
61769;BME280;47669;48.712;9.016;2023-07-22T00:48:47;96590.94;;;10.69;87.52
61769;BME280;47669;48.712;9.016;2023-07-22T00:51:13;96584.75;;;10.88;87.23
61769;BME280;47669;48.712;9.016;2023-07-22T00:53:39;96587.69;;;10.67;86.76
61769;BME280;47669;48.712;9.016;2023-07-22T00:56:04;96589.97;;;11.02;85.93
61769;BME280;47669;48.712;9.016;2023-07-22T00:58:29;96590.56;;;11.04;86.30
61769;BME280;47669;48.712;9.016;2023-07-22T01:00:55;96585.44;;;10.70;87.94
61769;BME280;47669;48.712;9.016;2023-07-22T01:03:20;96576.53;;;10.58;87.41
61769;BME280;47669;48.712;9.016;2023-07-22T01:05:47;96581.97;;;10.76;86.11
61769;BME280;47669;48.712;9.016;2023-07-22T01:08:13;96583.38;;;10.79;87.27
61769;BME280;47669;48.712;9.016;2023-07-22T01:10:39;96579.47;;;10.88;87.24
61769;BME280;47669;48.712;9.016;2023-07-22T01:13:04;96575.75;;;10.96;85.80
61769;BME280;47669;48.712;9.016;2023-07-22T01:15:30;96576.38;;;10.53;87.96
61769;BME280;47669;48.712;9.016;2023-07-22T01:17:56;96581.44;;;10.54;88.43
61769;BME280;47669;48.712;9.016;2023-07-22T01:20:27;96570.91;;;10.93;87.70
61769;BME280;47669;48.712;9.016;2023-07-22T01:22:53;96576.16;;;10.54;88.37
61769;BME280;47669;48.712;9.016;2023-07-22T01:25:23;96564.94;;;10.66;87.97
61769;BME280;47669;48.712;9.016;2023-07-22T01:27:49;96567.41;;;10.61;88.17
61769;BME280;47669;48.712;9.016;2023-07-22T01:30:15;96560.94;;;10.50;88.94
61769;BME280;47669;48.712;9.016;2023-07-22T01:32:40;96567.03;;;10.50;89.10
61769;BME280;47669;48.712;9.016;2023-07-22T01:35:07;96557.28;;;10.51;89.04
61769;BME280;47669;48.712;9.016;2023-07-22T01:37:33;96560.31;;;10.54;88.22
61769;BME280;47669;48.712;9.016;2023-07-22T01:39:58;96565.03;;;10.46;87.68
61769;BME280;47669;48.712;9.016;2023-07-22T01:42:24;96564.75;;;10.61;86.68
61769;BME280;47669;48.712;9.016;2023-07-22T01:44:49;96560.34;;;10.48;87.61
61769;BME280;47669;48.712;9.016;2023-07-22T01:47:14;96569.44;;;10.52;87.87
61769;BME280;47669;48.712;9.016;2023-07-22T01:49:39;96563.56;;;10.56;87.29
61769;BME280;47669;48.712;9.016;2023-07-22T01:52:05;96569.84;;;10.55;86.61
61769;BME280;47669;48.712;9.016;2023-07-22T01:54:30;96566.28;;;10.30;87.33
61769;BME280;47669;48.712;9.016;2023-07-22T01:56:56;96555.03;;;10.54;86.64
61769;BME280;47669;48.712;9.016;2023-07-22T01:59:21;96558.34;;;10.36;87.68
61769;BME280;47669;48.712;9.016;2023-07-22T02:01:47;96559.38;;;10.15;88.86
61769;BME280;47669;48.712;9.016;2023-07-22T02:04:13;96562.13;;;10.54;86.85
61769;BME280;47669;48.712;9.016;2023-07-22T02:06:38;96555.25;;;10.46;87.30
61769;BME280;47669;48.712;9.016;2023-07-22T02:09:03;96559.28;;;10.55;87.18
61769;BME280;47669;48.712;9.016;2023-07-22T02:11:35;96563.38;;;10.45;87.86
61769;BME280;47669;48.712;9.016;2023-07-22T02:14:00;96569.94;;;10.15;88.44
61769;BME280;47669;48.712;9.016;2023-07-22T02:16:25;96568.06;;;10.43;87.32
61769;BME280;47669;48.712;9.016;2023-07-22T02:18:50;96571.75;;;10.42;88.74
61769;BME280;47669;48.712;9.016;2023-07-22T02:21:16;96572.97;;;10.26;88.35
61769;BME280;47669;48.712;9.016;2023-07-22T02:23:41;96578.69;;;10.29;89.00
61769;BME280;47669;48.712;9.016;2023-07-22T02:26:07;96574.38;;;10.42;88.27
61769;BME280;47669;48.712;9.016;2023-07-22T02:28:33;96571.13;;;10.26;88.79
61769;BME280;47669;48.712;9.016;2023-07-22T02:31:01;96580.44;;;10.49;87.26
61769;BME280;47669;48.712;9.016;2023-07-22T02:33:27;96577.25;;;10.20;88.13
61769;BME280;47669;48.712;9.016;2023-07-22T02:35:52;96579.66;;;10.28;87.55
61769;BME280;47669;48.712;9.016;2023-07-22T02:38:17;96581.41;;;10.61;87.11
61769;BME280;47669;48.712;9.016;2023-07-22T02:40:43;96583.53;;;10.32;87.69
61769;BME280;47669;48.712;9.016;2023-07-22T02:43:08;96586.16;;;10.39;88.66
61769;BME280;47669;48.712;9.016;2023-07-22T02:45:34;96584.09;;;10.54;87.66
61769;BME280;47669;48.712;9.016;2023-07-22T02:47:59;96582.94;;;10.24;87.38
61769;BME280;47669;48.712;9.016;2023-07-22T02:50:25;96577.84;;;10.35;87.13
61769;BME280;47669;48.712;9.016;2023-07-22T02:52:50;96575.06;;;10.04;88.18
61769;BME280;47669;48.712;9.016;2023-07-22T02:55:17;96582.97;;;10.04;89.24
61769;BME280;47669;48.712;9.016;2023-07-22T02:57:44;96586.81;;;10.21;88.33
61769;BME280;47669;48.712;9.016;2023-07-22T03:00:09;96590.25;;;10.15;88.21
61769;BME280;47669;48.712;9.016;2023-07-22T03:02:40;96582.38;;;10.08;88.60
61769;BME280;47669;48.712;9.016;2023-07-22T03:05:07;96573.19;;;10.37;87.55
61769;BME280;47669;48.712;9.016;2023-07-22T03:07:40;96581.75;;;10.06;88.60
61769;BME280;47669;48.712;9.016;2023-07-22T03:10:06;96576.47;;;10.06;89.29
61769;BME280;47669;48.712;9.016;2023-07-22T03:12:32;96566.75;;;9.93;88.64
61769;BME280;47669;48.712;9.016;2023-07-22T03:14:58;96565.53;;;9.96;88.96
61769;BME280;47669;48.712;9.016;2023-07-22T03:17:24;96570.22;;;9.87;88.90
61769;BME280;47669;48.712;9.016;2023-07-22T03:19:49;96564.69;;;10.09;87.31
61769;BME280;47669;48.712;9.016;2023-07-22T03:22:15;96567.31;;;10.09;87.11
61769;BME280;47669;48.712;9.016;2023-07-22T03:24:46;96569.75;;;10.10;88.14
61769;BME280;47669;48.712;9.016;2023-07-22T03:27:13;96568.56;;;10.06;88.41
61769;BME280;47669;48.712;9.016;2023-07-22T03:29:39;96574.22;;;10.16;87.67
61769;BME280;47669;48.712;9.016;2023-07-22T03:32:05;96573.63;;;10.01;87.91
61769;BME280;47669;48.712;9.016;2023-07-22T03:34:30;96569.97;;;10.02;87.71
61769;BME280;47669;48.712;9.016;2023-07-22T03:36:57;96563.91;;;9.82;88.75
61769;BME280;47669;48.712;9.016;2023-07-22T03:39:22;96577.94;;;9.82;87.48
61769;BME280;47669;48.712;9.016;2023-07-22T03:41:47;96574.25;;;9.96;87.77
61769;BME280;47669;48.712;9.016;2023-07-22T03:44:13;96572.25;;;9.78;88.48
61769;BME280;47669;48.712;9.016;2023-07-22T03:46:38;96571.22;;;9.73;88.57
61769;BME280;47669;48.712;9.016;2023-07-22T03:49:04;96580.97;;;9.72;88.95
61769;BME280;47669;48.712;9.016;2023-07-22T03:51:29;96572.63;;;9.95;88.41
61769;BME280;47669;48.712;9.016;2023-07-22T03:53:54;96569.78;;;9.90;89.01
61769;BME280;47669;48.712;9.016;2023-07-22T03:56:20;96566.97;;;9.78;89.60
61769;BME280;47669;48.712;9.016;2023-07-22T03:58:46;96572.66;;;9.82;89.56
61769;BME280;47669;48.712;9.016;2023-07-22T04:01:13;96576.28;;;9.94;88.51
61769;BME280;47669;48.712;9.016;2023-07-22T04:03:38;96574.63;;;10.13;87.91
61769;BME280;47669;48.712;9.016;2023-07-22T04:06:03;96572.81;;;10.07;88.57
61769;BME280;47669;48.712;9.016;2023-07-22T04:08:29;96572.84;;;9.94;88.71
61769;BME280;47669;48.712;9.016;2023-07-22T04:10:54;96568.78;;;9.91;89.11
61769;BME280;47669;48.712;9.016;2023-07-22T04:13:20;96568.34;;;10.01;89.26
61769;BME280;47669;48.712;9.016;2023-07-22T04:15:47;96566.53;;;10.02;88.80
61769;BME280;47669;48.712;9.016;2023-07-22T04:18:12;96559.22;;;10.04;89.84
61769;BME280;47669;48.712;9.016;2023-07-22T04:20:37;96563.81;;;10.28;88.31
61769;BME280;47669;48.712;9.016;2023-07-22T04:23:03;96566.31;;;10.16;87.60
61769;BME280;47669;48.712;9.016;2023-07-22T04:25:28;96563.66;;;10.16;89.13
61769;BME280;47669;48.712;9.016;2023-07-22T04:27:53;96568.13;;;10.16;89.08
61769;BME280;47669;48.712;9.016;2023-07-22T04:30:18;96560.34;;;10.41;87.40
61769;BME280;47669;48.712;9.016;2023-07-22T04:32:48;96558.97;;;10.32;87.71
61769;BME280;47669;48.712;9.016;2023-07-22T04:35:14;96566.47;;;10.35;87.53
61769;BME280;47669;48.712;9.016;2023-07-22T04:37:42;96567.91;;;10.37;87.38
61769;BME280;47669;48.712;9.016;2023-07-22T04:40:08;96563.22;;;10.39;86.92
61769;BME280;47669;48.712;9.016;2023-07-22T04:42:38;96569.47;;;10.45;87.57
61769;BME280;47669;48.712;9.016;2023-07-22T04:45:04;96569.28;;;10.47;86.38
61769;BME280;47669;48.712;9.016;2023-07-22T04:47:31;96573.63;;;10.73;84.95
61769;BME280;47669;48.712;9.016;2023-07-22T04:49:56;96566.63;;;10.92;84.85
61769;BME280;47669;48.712;9.016;2023-07-22T04:52:21;96569.19;;;10.67;86.48
61769;BME280;47669;48.712;9.016;2023-07-22T04:54:47;96561.56;;;10.90;86.29
61769;BME280;47669;48.712;9.016;2023-07-22T04:57:12;96577.25;;;10.85;86.00
61769;BME280;47669;48.712;9.016;2023-07-22T04:59:37;96574.25;;;11.07;86.03
61769;BME280;47669;48.712;9.016;2023-07-22T05:02:03;96572.47;;;11.07;86.03
61769;BME280;47669;48.712;9.016;2023-07-22T05:04:29;96568.97;;;11.13;85.92
61769;BME280;47669;48.712;9.016;2023-07-22T05:06:54;96568.44;;;11.30;85.00
61769;BME280;47669;48.712;9.016;2023-07-22T05:09:20;96572.47;;;11.32;86.31
61769;BME280;47669;48.712;9.016;2023-07-22T05:11:45;96574.28;;;11.64;84.49
61769;BME280;47669;48.712;9.016;2023-07-22T05:14:10;96579.31;;;11.72;84.34
61769;BME280;47669;48.712;9.016;2023-07-22T05:16:35;96580.78;;;11.93;85.42
61769;BME280;47669;48.712;9.016;2023-07-22T05:19:01;96581.16;;;11.96;83.36
61769;BME280;47669;48.712;9.016;2023-07-22T05:21:26;96579.94;;;12.17;82.67
61769;BME280;47669;48.712;9.016;2023-07-22T05:23:51;96576.41;;;12.24;82.54
61769;BME280;47669;48.712;9.016;2023-07-22T05:26:16;96580.75;;;12.36;82.41
61769;BME280;47669;48.712;9.016;2023-07-22T05:28:42;96588.59;;;12.80;81.93
61769;BME280;47669;48.712;9.016;2023-07-22T05:31:07;96584.41;;;13.21;80.44
61769;BME280;47669;48.712;9.016;2023-07-22T05:33:32;96582.81;;;13.97;77.79
61769;BME280;47669;48.712;9.016;2023-07-22T05:35:58;96582.47;;;13.94;78.32
61769;BME280;47669;48.712;9.016;2023-07-22T05:38:23;96580.47;;;14.36;75.86
61769;BME280;47669;48.712;9.016;2023-07-22T05:40:48;96583.84;;;13.84;78.58
61769;BME280;47669;48.712;9.016;2023-07-22T05:43:13;96589.72;;;13.75;76.58
61769;BME280;47669;48.712;9.016;2023-07-22T05:45:39;96586.16;;;14.16;77.10
61769;BME280;47669;48.712;9.016;2023-07-22T05:48:04;96591.22;;;14.18;75.87
61769;BME280;47669;48.712;9.016;2023-07-22T05:50:29;96589.75;;;14.10;76.29
61769;BME280;47669;48.712;9.016;2023-07-22T05:52:55;96592.59;;;14.32;75.21
61769;BME280;47669;48.712;9.016;2023-07-22T05:55:20;96591.81;;;14.20;74.94
61769;BME280;47669;48.712;9.016;2023-07-22T05:57:46;96599.31;;;14.11;74.93
61769;BME280;47669;48.712;9.016;2023-07-22T06:00:11;96598.16;;;14.31;74.38
61769;BME280;47669;48.712;9.016;2023-07-22T06:02:38;96597.56;;;14.52;73.70
61769;BME280;47669;48.712;9.016;2023-07-22T06:05:04;96594.22;;;14.57;73.90
61769;BME280;47669;48.712;9.016;2023-07-22T06:07:29;96599.72;;;14.79;73.09
61769;BME280;47669;48.712;9.016;2023-07-22T06:09:54;96601.84;;;15.05;72.14
61769;BME280;47669;48.712;9.016;2023-07-22T06:12:20;96599.31;;;14.99;71.69
61769;BME280;47669;48.712;9.016;2023-07-22T06:14:45;96600.41;;;15.15;71.21
61769;BME280;47669;48.712;9.016;2023-07-22T06:17:10;96597.28;;;15.18;73.31
61769;BME280;47669;48.712;9.016;2023-07-22T06:19:36;96602.75;;;15.28;71.60
61769;BME280;47669;48.712;9.016;2023-07-22T06:22:01;96601.53;;;15.47;70.90
61769;BME280;47669;48.712;9.016;2023-07-22T06:24:26;96596.81;;;15.83;69.84
61769;BME280;47669;48.712;9.016;2023-07-22T06:26:52;96600.56;;;15.54;69.64
61769;BME280;47669;48.712;9.016;2023-07-22T06:29:17;96602.94;;;15.84;68.80
61769;BME280;47669;48.712;9.016;2023-07-22T06:31:42;96602.56;;;15.92;69.54
61769;BME280;47669;48.712;9.016;2023-07-22T06:34:07;96604.34;;;16.25;68.33
61769;BME280;47669;48.712;9.016;2023-07-22T06:36:33;96601.25;;;16.12;67.98
61769;BME280;47669;48.712;9.016;2023-07-22T06:38:59;96607.03;;;16.25;68.29
61769;BME280;47669;48.712;9.016;2023-07-22T06:41:24;96608.38;;;16.45;66.83
61769;BME280;47669;48.712;9.016;2023-07-22T06:43:49;96611.28;;;16.65;66.76
61769;BME280;47669;48.712;9.016;2023-07-22T06:46:15;96609.31;;;16.56;67.44
61769;BME280;47669;48.712;9.016;2023-07-22T06:48:40;96607.41;;;16.95;67.20
61769;BME280;47669;48.712;9.016;2023-07-22T06:51:07;96608.53;;;16.99;68.05
61769;BME280;47669;48.712;9.016;2023-07-22T06:53:33;96611.38;;;17.42;65.83
61769;BME280;47669;48.712;9.016;2023-07-22T06:55:58;96602.06;;;17.44;64.64
61769;BME280;47669;48.712;9.016;2023-07-22T06:58:23;96605.69;;;17.33;65.15
61769;BME280;47669;48.712;9.016;2023-07-22T07:00:53;96607.56;;;17.60;63.60
61769;BME280;47669;48.712;9.016;2023-07-22T07:03:18;96613.09;;;17.26;64.51
61769;BME280;47669;48.712;9.016;2023-07-22T07:05:44;96606.47;;;17.61;65.05
61769;BME280;47669;48.712;9.016;2023-07-22T07:08:09;96608.53;;;17.48;62.56
61769;BME280;47669;48.712;9.016;2023-07-22T07:10:38;96605.91;;;17.86;62.22
61769;BME280;47669;48.712;9.016;2023-07-22T07:13:04;96610.09;;;18.09;61.17
61769;BME280;47669;48.712;9.016;2023-07-22T07:15:29;96606.31;;;18.00;61.29
61769;BME280;47669;48.712;9.016;2023-07-22T07:17:55;96607.16;;;18.48;62.22
61769;BME280;47669;48.712;9.016;2023-07-22T07:20:20;96608.59;;;18.23;60.72
61769;BME280;47669;48.712;9.016;2023-07-22T07:22:45;96607.19;;;18.16;60.37
61769;BME280;47669;48.712;9.016;2023-07-22T07:25:10;96607.09;;;18.00;60.97
61769;BME280;47669;48.712;9.016;2023-07-22T07:27:37;96608.59;;;18.23;60.66
61769;BME280;47669;48.712;9.016;2023-07-22T07:30:02;96614.47;;;18.63;60.21
61769;BME280;47669;48.712;9.016;2023-07-22T07:32:27;96611.69;;;18.95;59.87
61769;BME280;47669;48.712;9.016;2023-07-22T07:34:53;96616.72;;;18.86;59.81
61769;BME280;47669;48.712;9.016;2023-07-22T07:37:18;96621.47;;;18.74;58.42
61769;BME280;47669;48.712;9.016;2023-07-22T07:39:44;96614.13;;;18.54;59.13
61769;BME280;47669;48.712;9.016;2023-07-22T07:42:09;96613.31;;;19.06;59.62
61769;BME280;47669;48.712;9.016;2023-07-22T07:44:34;96612.97;;;18.82;57.88
61769;BME280;47669;48.712;9.016;2023-07-22T07:46:59;96619.75;;;19.10;57.47
61769;BME280;47669;48.712;9.016;2023-07-22T07:49:25;96611.38;;;18.91;56.42
61769;BME280;47669;48.712;9.016;2023-07-22T07:51:50;96611.53;;;19.43;58.64
61769;BME280;47669;48.712;9.016;2023-07-22T07:54:16;96610.50;;;20.21;55.97
61769;BME280;47669;48.712;9.016;2023-07-22T07:56:41;96605.97;;;19.70;55.86
61769;BME280;47669;48.712;9.016;2023-07-22T07:59:06;96609.44;;;19.81;54.12
61769;BME280;47669;48.712;9.016;2023-07-22T08:01:34;96605.94;;;19.65;54.39
61769;BME280;47669;48.712;9.016;2023-07-22T08:04:00;96605.69;;;20.02;52.90
61769;BME280;47669;48.712;9.016;2023-07-22T08:06:25;96607.03;;;19.74;52.58
61769;BME280;47669;48.712;9.016;2023-07-22T08:08:51;96602.72;;;20.14;51.07
61769;BME280;47669;48.712;9.016;2023-07-22T08:11:16;96604.53;;;20.54;53.18
61769;BME280;47669;48.712;9.016;2023-07-22T08:13:43;96603.22;;;20.47;50.03
61769;BME280;47669;48.712;9.016;2023-07-22T08:16:10;96595.41;;;20.66;48.07
61769;BME280;47669;48.712;9.016;2023-07-22T08:18:36;96603.19;;;20.67;48.44
61769;BME280;47669;48.712;9.016;2023-07-22T08:21:04;96594.56;;;20.81;46.95
61769;BME280;47669;48.712;9.016;2023-07-22T08:23:30;96604.09;;;21.12;49.28
61769;BME280;47669;48.712;9.016;2023-07-22T08:25:55;96595.88;;;21.38;45.56
61769;BME280;47669;48.712;9.016;2023-07-22T08:28:20;96592.41;;;20.78;44.52
61769;BME280;47669;48.712;9.016;2023-07-22T08:30:47;96592.91;;;20.85;44.53
61769;BME280;47669;48.712;9.016;2023-07-22T08:33:14;96597.91;;;21.07;42.72
61769;BME280;47669;48.712;9.016;2023-07-22T08:35:40;96593.25;;;21.28;45.15
61769;BME280;47669;48.712;9.016;2023-07-22T08:38:06;96589.13;;;21.41;42.15
61769;BME280;47669;48.712;9.016;2023-07-22T08:40:40;96579.81;;;21.67;41.65
61769;BME280;47669;48.712;9.016;2023-07-22T08:43:07;96579.19;;;21.81;39.68
61769;BME280;47669;48.712;9.016;2023-07-22T08:45:34;96584.50;;;21.86;39.75
61769;BME280;47669;48.712;9.016;2023-07-22T08:48:03;96581.34;;;21.79;41.33
61769;BME280;47669;48.712;9.016;2023-07-22T08:50:44;96583.03;;;21.25;41.44
61769;BME280;47669;48.712;9.016;2023-07-22T08:53:12;96588.84;;;20.92;41.12
61769;BME280;47669;48.712;9.016;2023-07-22T08:55:37;96580.03;;;20.82;41.51
61769;BME280;47669;48.712;9.016;2023-07-22T08:58:07;96592.97;;;20.74;40.56
61769;BME280;47669;48.712;9.016;2023-07-22T09:00:33;96590.81;;;20.71;41.73
61769;BME280;47669;48.712;9.016;2023-07-22T09:02:59;96590.03;;;20.66;41.87
61769;BME280;47669;48.712;9.016;2023-07-22T09:05:25;96588.22;;;20.25;42.42
61769;BME280;47669;48.712;9.016;2023-07-22T09:07:52;96592.72;;;20.61;42.57
61769;BME280;47669;48.712;9.016;2023-07-22T09:10:19;96592.75;;;20.45;43.29
61769;BME280;47669;48.712;9.016;2023-07-22T09:12:44;96593.81;;;20.44;42.73
61769;BME280;47669;48.712;9.016;2023-07-22T09:15:10;96599.47;;;20.38;43.72
61769;BME280;47669;48.712;9.016;2023-07-22T09:17:38;96603.19;;;20.62;43.21
61769;BME280;47669;48.712;9.016;2023-07-22T09:20:03;96594.56;;;20.76;43.35
61769;BME280;47669;48.712;9.016;2023-07-22T09:22:29;96600.66;;;20.97;42.81
61769;BME280;47669;48.712;9.016;2023-07-22T09:25:12;96598.63;;;21.23;42.00
61769;BME280;47669;48.712;9.016;2023-07-22T09:27:39;96590.69;;;20.97;42.23
61769;BME280;47669;48.712;9.016;2023-07-22T09:30:23;96587.63;;;20.64;42.03
61769;BME280;47669;48.712;9.016;2023-07-22T09:32:50;96579.81;;;20.73;42.25
61769;BME280;47669;48.712;9.016;2023-07-22T09:35:16;96580.81;;;21.42;43.05
61769;BME280;47669;48.712;9.016;2023-07-22T09:37:41;96584.03;;;21.39;43.68
61769;BME280;47669;48.712;9.016;2023-07-22T09:40:24;96575.59;;;21.11;41.33
61769;BME280;47669;48.712;9.016;2023-07-22T09:42:54;96581.31;;;21.49;42.03
61769;BME280;47669;48.712;9.016;2023-07-22T09:45:22;96580.78;;;21.47;41.58
61769;BME280;47669;48.712;9.016;2023-07-22T09:47:49;96581.63;;;21.43;41.40
61769;BME280;47669;48.712;9.016;2023-07-22T09:50:20;96579.59;;;21.19;41.32
61769;BME280;47669;48.712;9.016;2023-07-22T09:52:48;96580.44;;;21.59;41.23
61769;BME280;47669;48.712;9.016;2023-07-22T09:55:16;96572.66;;;22.45;40.70
61769;BME280;47669;48.712;9.016;2023-07-22T09:57:45;96585.91;;;22.12;39.72
61769;BME280;47669;48.712;9.016;2023-07-22T10:00:12;96584.13;;;21.68;40.08
61769;BME280;47669;48.712;9.016;2023-07-22T10:02:41;96580.91;;;21.66;40.22
61769;BME280;47669;48.712;9.016;2023-07-22T10:05:15;96577.28;;;21.47;41.40
61769;BME280;47669;48.712;9.016;2023-07-22T10:07:47;96572.84;;;21.66;40.61
61769;BME280;47669;48.712;9.016;2023-07-22T10:10:16;96576.63;;;21.65;41.47
61769;BME280;47669;48.712;9.016;2023-07-22T10:12:42;96570.72;;;21.63;43.52
61769;BME280;47669;48.712;9.016;2023-07-22T10:15:09;96579.63;;;21.93;39.72
61769;BME280;47669;48.712;9.016;2023-07-22T10:17:36;96571.16;;;21.75;39.32
61769;BME280;47669;48.712;9.016;2023-07-22T10:20:01;96574.53;;;21.86;40.11
61769;BME280;47669;48.712;9.016;2023-07-22T10:22:30;96581.22;;;21.60;40.68
61769;BME280;47669;48.712;9.016;2023-07-22T10:24:56;96585.66;;;21.40;40.77
61769;BME280;47669;48.712;9.016;2023-07-22T10:27:22;96573.56;;;21.43;42.09
61769;BME280;47669;48.712;9.016;2023-07-22T10:29:48;96573.66;;;21.22;41.83
61769;BME280;47669;48.712;9.016;2023-07-22T10:32:14;96572.63;;;21.92;40.27
61769;BME280;47669;48.712;9.016;2023-07-22T10:34:39;96568.47;;;23.06;40.90
61769;BME280;47669;48.712;9.016;2023-07-22T10:37:04;96566.75;;;22.91;38.28
61769;BME280;47669;48.712;9.016;2023-07-22T10:39:30;96566.16;;;23.19;38.18
61769;BME280;47669;48.712;9.016;2023-07-22T10:42:05;96554.72;;;24.11;36.88
61769;BME280;47669;48.712;9.016;2023-07-22T10:44:32;96560.16;;;23.41;35.62
61769;BME280;47669;48.712;9.016;2023-07-22T10:46:58;96559.63;;;23.57;38.21
61769;BME280;47669;48.712;9.016;2023-07-22T10:49:24;96560.16;;;23.41;36.75
61769;BME280;47669;48.712;9.016;2023-07-22T10:51:52;96553.41;;;22.33;38.16
61769;BME280;47669;48.712;9.016;2023-07-22T10:54:35;96554.56;;;22.51;39.31
61769;BME280;47669;48.712;9.016;2023-07-22T10:57:24;96554.56;;;22.27;39.78
61769;BME280;47669;48.712;9.016;2023-07-22T10:59:52;96557.19;;;22.03;41.38
61769;BME280;47669;48.712;9.016;2023-07-22T11:02:27;96559.19;;;21.92;41.95
61769;BME280;47669;48.712;9.016;2023-07-22T11:04:52;96560.09;;;21.38;41.45
61769;BME280;47669;48.712;9.016;2023-07-22T11:07:50;96563.47;;;21.64;43.38
61769;BME280;47669;48.712;9.016;2023-07-22T11:10:18;96557.09;;;21.84;42.27
61769;BME280;47669;48.712;9.016;2023-07-22T11:12:44;96558.22;;;22.07;41.57
61769;BME280;47669;48.712;9.016;2023-07-22T11:15:10;96548.69;;;22.25;41.71
61769;BME280;47669;48.712;9.016;2023-07-22T11:17:37;96543.75;;;22.99;39.87
61769;BME280;47669;48.712;9.016;2023-07-22T11:20:03;96548.09;;;23.71;38.92
61769;BME280;47669;48.712;9.016;2023-07-22T11:22:28;96531.00;;;23.24;38.61
61769;BME280;47669;48.712;9.016;2023-07-22T11:24:57;96529.84;;;24.42;39.26
61769;BME280;47669;48.712;9.016;2023-07-22T11:27:25;96523.66;;;23.81;40.05
61769;BME280;47669;48.712;9.016;2023-07-22T11:29:51;96523.34;;;24.85;39.77
61769;BME280;47669;48.712;9.016;2023-07-22T11:32:18;96509.63;;;25.31;35.33
61769;BME280;47669;48.712;9.016;2023-07-22T11:34:46;96518.91;;;25.03;37.98
61769;BME280;47669;48.712;9.016;2023-07-22T11:37:12;96506.03;;;24.72;38.07
61769;BME280;47669;48.712;9.016;2023-07-22T11:39:38;96500.84;;;25.12;34.70
61769;BME280;47669;48.712;9.016;2023-07-22T11:42:04;96492.44;;;26.04;35.19
61769;BME280;47669;48.712;9.016;2023-07-22T11:44:31;96483.69;;;25.53;34.66
61769;BME280;47669;48.712;9.016;2023-07-22T11:47:03;96492.13;;;24.78;35.62
61769;BME280;47669;48.712;9.016;2023-07-22T11:52:05;96493.22;;;24.77;35.49
61769;BME280;47669;48.712;9.016;2023-07-22T11:54:33;96485.72;;;24.19;36.90
61769;BME280;47669;48.712;9.016;2023-07-22T11:57:16;96477.63;;;24.05;37.13
61769;BME280;47669;48.712;9.016;2023-07-22T11:59:53;96479.63;;;24.41;37.35
61769;BME280;47669;48.712;9.016;2023-07-22T12:02:20;96471.94;;;24.34;35.20
61769;BME280;47669;48.712;9.016;2023-07-22T12:05:00;96476.53;;;24.06;35.35
61769;BME280;47669;48.712;9.016;2023-07-22T12:07:34;96474.28;;;25.28;35.37
61769;BME280;47669;48.712;9.016;2023-07-22T12:10:02;96474.66;;;25.35;34.36
61769;BME280;47669;48.712;9.016;2023-07-22T12:12:40;96463.03;;;25.88;33.96
61769;BME280;47669;48.712;9.016;2023-07-22T12:15:15;96461.66;;;26.39;32.06
61769;BME280;47669;48.712;9.016;2023-07-22T12:17:56;96463.22;;;25.02;32.92
61769;BME280;47669;48.712;9.016;2023-07-22T12:20:30;96455.38;;;25.14;32.85
61769;BME280;47669;48.712;9.016;2023-07-22T12:22:57;96468.00;;;26.35;32.07
61769;BME280;47669;48.712;9.016;2023-07-22T12:25:22;96453.59;;;26.08;31.73
61769;BME280;47669;48.712;9.016;2023-07-22T12:27:48;96456.81;;;26.85;31.89
61769;BME280;47669;48.712;9.016;2023-07-22T12:30:13;96458.09;;;26.79;31.52
61769;BME280;47669;48.712;9.016;2023-07-22T12:32:39;96461.06;;;25.49;31.88
61769;BME280;47669;48.712;9.016;2023-07-22T12:35:05;96464.22;;;23.86;33.58
61769;BME280;47669;48.712;9.016;2023-07-22T12:37:30;96461.28;;;23.69;34.13
61769;BME280;47669;48.712;9.016;2023-07-22T12:39:56;96461.44;;;24.33;33.12
61769;BME280;47669;48.712;9.016;2023-07-22T12:42:22;96453.22;;;25.70;34.99
61769;BME280;47669;48.712;9.016;2023-07-22T12:44:47;96444.19;;;26.06;32.49
61769;BME280;47669;48.712;9.016;2023-07-22T12:47:12;96452.75;;;25.99;31.57
61769;BME280;47669;48.712;9.016;2023-07-22T12:49:37;96446.75;;;25.79;31.04
61769;BME280;47669;48.712;9.016;2023-07-22T12:52:03;96445.97;;;26.10;32.74
61769;BME280;47669;48.712;9.016;2023-07-22T12:54:30;96446.13;;;24.42;33.95
61769;BME280;47669;48.712;9.016;2023-07-22T12:56:56;96448.91;;;25.69;31.51
61769;BME280;47669;48.712;9.016;2023-07-22T12:59:21;96449.28;;;24.86;33.13